sensor_id;sensor_type;location;lat;lon;timestamp;temperature;humidity
43772;HTU21D;59066;54.782;32.024;2023-06-22T00:01:21;19.56;53.09
43772;HTU21D;59066;54.782;32.024;2023-06-22T00:03:49;19.51;53.23
43772;HTU21D;59066;54.782;32.024;2023-06-22T00:06:17;19.37;53.68
43772;HTU21D;59066;54.782;32.024;2023-06-22T00:08:44;19.22;54.23
43772;HTU21D;59066;54.782;32.024;2023-06-22T00:11:12;19.16;54.38
43772;HTU21D;59066;54.782;32.024;2023-06-22T00:13:39;19.12;54.36
43772;HTU21D;59066;54.782;32.024;2023-06-22T00:16:07;19.03;54.55
43772;HTU21D;59066;54.782;32.024;2023-06-22T00:18:34;19.03;54.58
43772;HTU21D;59066;54.782;32.024;2023-06-22T00:21:01;19.00;54.62
43772;HTU21D;59066;54.782;32.024;2023-06-22T00:23:29;19.02;54.55
43772;HTU21D;59066;54.782;32.024;2023-06-22T00:26:01;18.99;54.42
43772;HTU21D;59066;54.782;32.024;2023-06-22T00:28:28;18.95;54.59
43772;HTU21D;59066;54.782;32.024;2023-06-22T00:30:56;19.03;54.59
43772;HTU21D;59066;54.782;32.024;2023-06-22T00:33:25;19.13;54.45
43772;HTU21D;59066;54.782;32.024;2023-06-22T00:35:52;19.21;54.43
43772;HTU21D;59066;54.782;32.024;2023-06-22T00:38:22;19.06;54.88
43772;HTU21D;59066;54.782;32.024;2023-06-22T00:40:49;18.99;55.13
43772;HTU21D;59066;54.782;32.024;2023-06-22T00:43:17;18.95;55.38
43772;HTU21D;59066;54.782;32.024;2023-06-22T00:45:44;18.93;55.60
43772;HTU21D;59066;54.782;32.024;2023-06-22T00:48:12;18.87;55.84
43772;HTU21D;59066;54.782;32.024;2023-06-22T00:50:41;18.84;55.92
43772;HTU21D;59066;54.782;32.024;2023-06-22T00:53:09;18.83;55.93
43772;HTU21D;59066;54.782;32.024;2023-06-22T00:55:42;18.89;56.15
43772;HTU21D;59066;54.782;32.024;2023-06-22T00:58:14;18.94;55.92
43772;HTU21D;59066;54.782;32.024;2023-06-22T01:03:28;18.88;56.25
43772;HTU21D;59066;54.782;32.024;2023-06-22T01:06:02;18.79;56.64
43772;HTU21D;59066;54.782;32.024;2023-06-22T01:08:44;18.65;56.74
43772;HTU21D;59066;54.782;32.024;2023-06-22T01:11:21;18.64;56.58
43772;HTU21D;59066;54.782;32.024;2023-06-22T01:14:12;18.67;56.99
43772;HTU21D;59066;54.782;32.024;2023-06-22T01:16:44;18.66;56.83
43772;HTU21D;59066;54.782;32.024;2023-06-22T01:22:03;18.61;57.09
43772;HTU21D;59066;54.782;32.024;2023-06-22T01:29:52;18.56;57.46
43772;HTU21D;59066;54.782;32.024;2023-06-22T01:32:33;18.57;57.52
43772;HTU21D;59066;54.782;32.024;2023-06-22T01:35:05;18.66;57.43
43772;HTU21D;59066;54.782;32.024;2023-06-22T01:37:34;18.70;57.37
43772;HTU21D;59066;54.782;32.024;2023-06-22T01:40:03;18.63;57.47
43772;HTU21D;59066;54.782;32.024;2023-06-22T01:42:32;18.56;57.51
43772;HTU21D;59066;54.782;32.024;2023-06-22T01:45:02;18.59;57.14
43772;HTU21D;59066;54.782;32.024;2023-06-22T01:47:31;18.58;57.06
43772;HTU21D;59066;54.782;32.024;2023-06-22T01:49:59;18.59;57.22
43772;HTU21D;59066;54.782;32.024;2023-06-22T01:52:27;18.65;57.26
43772;HTU21D;59066;54.782;32.024;2023-06-22T01:54:56;18.63;57.42
43772;HTU21D;59066;54.782;32.024;2023-06-22T01:57:25;18.62;57.38
43772;HTU21D;59066;54.782;32.024;2023-06-22T02:00:03;18.63;57.53
43772;HTU21D;59066;54.782;32.024;2023-06-22T02:05:34;18.47;57.03
43772;HTU21D;59066;54.782;32.024;2023-06-22T02:08:15;18.47;56.97
43772;HTU21D;59066;54.782;32.024;2023-06-22T02:10:46;18.54;56.92
43772;HTU21D;59066;54.782;32.024;2023-06-22T02:13:14;18.65;56.88
43772;HTU21D;59066;54.782;32.024;2023-06-22T02:15:43;18.68;56.73
43772;HTU21D;59066;54.782;32.024;2023-06-22T02:18:14;18.71;56.79
43772;HTU21D;59066;54.782;32.024;2023-06-22T02:20:42;18.68;56.64
43772;HTU21D;59066;54.782;32.024;2023-06-22T02:23:09;18.54;56.74
43772;HTU21D;59066;54.782;32.024;2023-06-22T02:25:37;18.58;56.53
43772;HTU21D;59066;54.782;32.024;2023-06-22T02:28:05;18.65;56.20
43772;HTU21D;59066;54.782;32.024;2023-06-22T02:30:32;18.69;55.93
43772;HTU21D;59066;54.782;32.024;2023-06-22T02:33:00;18.64;55.93
43772;HTU21D;59066;54.782;32.024;2023-06-22T02:35:28;18.68;56.06
43772;HTU21D;59066;54.782;32.024;2023-06-22T02:37:59;18.77;55.97
43772;HTU21D;59066;54.782;32.024;2023-06-22T02:40:29;18.77;55.87
43772;HTU21D;59066;54.782;32.024;2023-06-22T02:42:58;18.82;55.87
43772;HTU21D;59066;54.782;32.024;2023-06-22T02:45:30;18.93;55.68
43772;HTU21D;59066;54.782;32.024;2023-06-22T02:47:58;19.06;55.74
43772;HTU21D;59066;54.782;32.024;2023-06-22T02:50:25;19.01;55.63
43772;HTU21D;59066;54.782;32.024;2023-06-22T02:52:53;18.87;55.56
43772;HTU21D;59066;54.782;32.024;2023-06-22T02:55:21;18.84;55.45
43772;HTU21D;59066;54.782;32.024;2023-06-22T02:57:56;18.94;55.20
43772;HTU21D;59066;54.782;32.024;2023-06-22T03:00:30;19.01;55.15
43772;HTU21D;59066;54.782;32.024;2023-06-22T03:02:58;18.98;55.15
43772;HTU21D;59066;54.782;32.024;2023-06-22T03:05:26;18.94;55.15
43772;HTU21D;59066;54.782;32.024;2023-06-22T03:07:55;18.86;55.20
43772;HTU21D;59066;54.782;32.024;2023-06-22T03:10:22;18.83;55.11
43772;HTU21D;59066;54.782;32.024;2023-06-22T03:12:50;18.77;55.26
43772;HTU21D;59066;54.782;32.024;2023-06-22T03:15:17;18.77;55.23
43772;HTU21D;59066;54.782;32.024;2023-06-22T03:17:46;18.76;54.98
43772;HTU21D;59066;54.782;32.024;2023-06-22T03:20:14;18.80;54.79
43772;HTU21D;59066;54.782;32.024;2023-06-22T03:22:42;18.84;54.70
43772;HTU21D;59066;54.782;32.024;2023-06-22T03:25:10;18.86;54.70
43772;HTU21D;59066;54.782;32.024;2023-06-22T03:27:43;18.91;54.52
43772;HTU21D;59066;54.782;32.024;2023-06-22T03:30:11;18.89;54.42
43772;HTU21D;59066;54.782;32.024;2023-06-22T03:32:39;18.91;54.31
43772;HTU21D;59066;54.782;32.024;2023-06-22T03:35:07;18.97;54.06
43772;HTU21D;59066;54.782;32.024;2023-06-22T03:37:36;19.07;53.92
43772;HTU21D;59066;54.782;32.024;2023-06-22T03:40:05;19.26;53.79
43772;HTU21D;59066;54.782;32.024;2023-06-22T03:42:34;19.33;53.86
43772;HTU21D;59066;54.782;32.024;2023-06-22T03:45:03;19.40;53.65
43772;HTU21D;59066;54.782;32.024;2023-06-22T03:47:32;19.37;53.45
43772;HTU21D;59066;54.782;32.024;2023-06-22T03:50:01;19.35;53.36
43772;HTU21D;59066;54.782;32.024;2023-06-22T03:52:32;19.40;53.01
43772;HTU21D;59066;54.782;32.024;2023-06-22T03:54:59;19.45;52.61
43772;HTU21D;59066;54.782;32.024;2023-06-22T03:57:30;19.51;52.27
43772;HTU21D;59066;54.782;32.024;2023-06-22T03:59:58;19.62;51.86
43772;HTU21D;59066;54.782;32.024;2023-06-22T04:02:26;19.68;51.58
43772;HTU21D;59066;54.782;32.024;2023-06-22T04:04:53;19.80;51.17
43772;HTU21D;59066;54.782;32.024;2023-06-22T04:07:20;19.90;50.68
43772;HTU21D;59066;54.782;32.024;2023-06-22T04:09:48;20.05;50.64
43772;HTU21D;59066;54.782;32.024;2023-06-22T04:12:15;20.13;51.00
43772;HTU21D;59066;54.782;32.024;2023-06-22T04:14:43;20.22;51.20
43772;HTU21D;59066;54.782;32.024;2023-06-22T04:17:10;20.22;50.82
43772;HTU21D;59066;54.782;32.024;2023-06-22T04:19:41;20.27;50.54
43772;HTU21D;59066;54.782;32.024;2023-06-22T04:22:09;20.40;50.76
43772;HTU21D;59066;54.782;32.024;2023-06-22T04:24:37;20.50;51.06
43772;HTU21D;59066;54.782;32.024;2023-06-22T04:27:05;20.58;51.07
43772;HTU21D;59066;54.782;32.024;2023-06-22T04:29:34;20.68;51.09
43772;HTU21D;59066;54.782;32.024;2023-06-22T04:32:02;20.76;50.98
43772;HTU21D;59066;54.782;32.024;2023-06-22T04:34:32;20.86;50.43
43772;HTU21D;59066;54.782;32.024;2023-06-22T04:36:59;20.93;49.85
43772;HTU21D;59066;54.782;32.024;2023-06-22T04:39:27;20.94;49.73
43772;HTU21D;59066;54.782;32.024;2023-06-22T04:41:54;21.01;49.41
43772;HTU21D;59066;54.782;32.024;2023-06-22T04:44:27;21.03;49.35
43772;HTU21D;59066;54.782;32.024;2023-06-22T04:46:59;21.10;49.05
43772;HTU21D;59066;54.782;32.024;2023-06-22T04:49:36;21.18;49.01
43772;HTU21D;59066;54.782;32.024;2023-06-22T04:52:09;21.28;48.44
43772;HTU21D;59066;54.782;32.024;2023-06-22T04:54:38;21.35;47.44
43772;HTU21D;59066;54.782;32.024;2023-06-22T04:57:07;21.42;47.52
43772;HTU21D;59066;54.782;32.024;2023-06-22T04:59:38;21.53;47.83
43772;HTU21D;59066;54.782;32.024;2023-06-22T05:02:09;21.58;47.89
43772;HTU21D;59066;54.782;32.024;2023-06-22T05:04:37;21.66;47.33
43772;HTU21D;59066;54.782;32.024;2023-06-22T05:07:06;21.74;46.74
43772;HTU21D;59066;54.782;32.024;2023-06-22T05:09:34;21.80;45.64
43772;HTU21D;59066;54.782;32.024;2023-06-22T05:12:02;21.91;45.32
43772;HTU21D;59066;54.782;32.024;2023-06-22T05:14:33;22.03;45.04
43772;HTU21D;59066;54.782;32.024;2023-06-22T05:17:01;22.16;45.11
43772;HTU21D;59066;54.782;32.024;2023-06-22T05:19:31;22.22;45.06
43772;HTU21D;59066;54.782;32.024;2023-06-22T05:22:01;22.28;44.53
43772;HTU21D;59066;54.782;32.024;2023-06-22T05:24:28;22.36;44.29
43772;HTU21D;59066;54.782;32.024;2023-06-22T05:26:56;22.44;44.22
43772;HTU21D;59066;54.782;32.024;2023-06-22T05:29:23;22.53;44.37
43772;HTU21D;59066;54.782;32.024;2023-06-22T05:31:51;22.58;44.14
43772;HTU21D;59066;54.782;32.024;2023-06-22T05:34:18;22.65;43.00
43772;HTU21D;59066;54.782;32.024;2023-06-22T05:36:46;22.71;41.85
43772;HTU21D;59066;54.782;32.024;2023-06-22T05:39:14;22.76;41.87
43772;HTU21D;59066;54.782;32.024;2023-06-22T05:41:42;22.87;41.65
43772;HTU21D;59066;54.782;32.024;2023-06-22T05:44:13;22.95;41.37
43772;HTU21D;59066;54.782;32.024;2023-06-22T05:46:42;23.07;41.19
43772;HTU21D;59066;54.782;32.024;2023-06-22T05:49:14;23.21;40.91
43772;HTU21D;59066;54.782;32.024;2023-06-22T05:51:42;23.20;40.57
43772;HTU21D;59066;54.782;32.024;2023-06-22T05:54:09;23.29;40.27
43772;HTU21D;59066;54.782;32.024;2023-06-22T05:56:37;23.37;40.01
43772;HTU21D;59066;54.782;32.024;2023-06-22T05:59:04;23.50;39.68
43772;HTU21D;59066;54.782;32.024;2023-06-22T06:01:32;23.60;39.34
43772;HTU21D;59066;54.782;32.024;2023-06-22T06:04:03;23.68;38.90
43772;HTU21D;59066;54.782;32.024;2023-06-22T06:06:31;23.77;38.33
43772;HTU21D;59066;54.782;32.024;2023-06-22T06:08:58;23.87;38.17
43772;HTU21D;59066;54.782;32.024;2023-06-22T06:11:26;23.96;37.81
43772;HTU21D;59066;54.782;32.024;2023-06-22T06:13:54;24.06;37.65
43772;HTU21D;59066;54.782;32.024;2023-06-22T06:16:22;24.24;37.26
43772;HTU21D;59066;54.782;32.024;2023-06-22T06:18:50;24.27;37.57
43772;HTU21D;59066;54.782;32.024;2023-06-22T06:21:17;24.32;37.86
43772;HTU21D;59066;54.782;32.024;2023-06-22T06:23:45;24.36;36.57
43772;HTU21D;59066;54.782;32.024;2023-06-22T06:26:12;24.34;35.89
43772;HTU21D;59066;54.782;32.024;2023-06-22T06:28:40;24.38;35.69
43772;HTU21D;59066;54.782;32.024;2023-06-22T06:31:08;24.48;34.95
43772;HTU21D;59066;54.782;32.024;2023-06-22T06:33:36;24.56;34.39
43772;HTU21D;59066;54.782;32.024;2023-06-22T06:36:03;24.61;34.19
43772;HTU21D;59066;54.782;32.024;2023-06-22T06:38:31;24.69;33.88
43772;HTU21D;59066;54.782;32.024;2023-06-22T06:40:58;24.74;33.82
43772;HTU21D;59066;54.782;32.024;2023-06-22T06:43:26;24.82;33.99
43772;HTU21D;59066;54.782;32.024;2023-06-22T06:45:54;24.88;33.93
43772;HTU21D;59066;54.782;32.024;2023-06-22T06:48:21;24.97;33.75
43772;HTU21D;59066;54.782;32.024;2023-06-22T06:50:49;25.02;33.58
43772;HTU21D;59066;54.782;32.024;2023-06-22T06:53:17;25.06;33.69
43772;HTU21D;59066;54.782;32.024;2023-06-22T06:55:47;25.10;33.72
43772;HTU21D;59066;54.782;32.024;2023-06-22T06:58:15;25.17;33.60
43772;HTU21D;59066;54.782;32.024;2023-06-22T07:00:43;25.20;33.58
43772;HTU21D;59066;54.782;32.024;2023-06-22T07:03:11;25.24;33.59
43772;HTU21D;59066;54.782;32.024;2023-06-22T07:05:38;25.37;33.26
43772;HTU21D;59066;54.782;32.024;2023-06-22T07:08:06;25.48;33.10
43772;HTU21D;59066;54.782;32.024;2023-06-22T07:10:33;25.51;33.13
43772;HTU21D;59066;54.782;32.024;2023-06-22T07:13:01;25.54;33.20
43772;HTU21D;59066;54.782;32.024;2023-06-22T07:15:28;25.64;32.87
43772;HTU21D;59066;54.782;32.024;2023-06-22T07:17:56;25.67;32.89
43772;HTU21D;59066;54.782;32.024;2023-06-22T07:20:23;25.74;32.97
43772;HTU21D;59066;54.782;32.024;2023-06-22T07:22:51;25.77;32.89
43772;HTU21D;59066;54.782;32.024;2023-06-22T07:25:18;25.81;32.80
43772;HTU21D;59066;54.782;32.024;2023-06-22T07:27:57;25.83;32.62
43772;HTU21D;59066;54.782;32.024;2023-06-22T07:30:25;25.91;32.70
43772;HTU21D;59066;54.782;32.024;2023-06-22T07:32:52;25.95;32.73
43772;HTU21D;59066;54.782;32.024;2023-06-22T07:35:22;26.07;32.53
43772;HTU21D;59066;54.782;32.024;2023-06-22T07:37:50;26.15;32.33
43772;HTU21D;59066;54.782;32.024;2023-06-22T07:40:17;26.20;32.33
43772;HTU21D;59066;54.782;32.024;2023-06-22T07:42:45;26.28;32.19
43772;HTU21D;59066;54.782;32.024;2023-06-22T07:45:15;26.34;32.06
43772;HTU21D;59066;54.782;32.024;2023-06-22T07:47:43;26.41;32.02
43772;HTU21D;59066;54.782;32.024;2023-06-22T07:50:10;26.50;32.06
43772;HTU21D;59066;54.782;32.024;2023-06-22T07:52:38;26.57;32.08
43772;HTU21D;59066;54.782;32.024;2023-06-22T07:55:05;26.61;32.22
43772;HTU21D;59066;54.782;32.024;2023-06-22T07:57:32;26.73;32.29
43772;HTU21D;59066;54.782;32.024;2023-06-22T08:00:03;26.78;32.19
43772;HTU21D;59066;54.782;32.024;2023-06-22T08:02:38;26.82;32.01
43772;HTU21D;59066;54.782;32.024;2023-06-22T08:05:10;26.86;31.99
43772;HTU21D;59066;54.782;32.024;2023-06-22T08:07:41;26.99;31.96
43772;HTU21D;59066;54.782;32.024;2023-06-22T08:10:12;27.06;31.84
43772;HTU21D;59066;54.782;32.024;2023-06-22T08:12:40;27.01;31.70
43772;HTU21D;59066;54.782;32.024;2023-06-22T08:15:08;27.06;31.32
43772;HTU21D;59066;54.782;32.024;2023-06-22T08:17:37;27.05;31.04
43772;HTU21D;59066;54.782;32.024;2023-06-22T08:20:06;27.15;31.28
43772;HTU21D;59066;54.782;32.024;2023-06-22T08:22:37;27.25;31.15
43772;HTU21D;59066;54.782;32.024;2023-06-22T08:25:05;27.39;31.06
43772;HTU21D;59066;54.782;32.024;2023-06-22T08:27:33;27.46;30.90
43772;HTU21D;59066;54.782;32.024;2023-06-22T08:30:01;27.52;31.03
43772;HTU21D;59066;54.782;32.024;2023-06-22T08:32:29;27.67;30.96
43772;HTU21D;59066;54.782;32.024;2023-06-22T08:34:57;27.76;31.07
43772;HTU21D;59066;54.782;32.024;2023-06-22T08:37:25;27.89;30.71
43772;HTU21D;59066;54.782;32.024;2023-06-22T08:40:02;27.99;30.45
43772;HTU21D;59066;54.782;32.024;2023-06-22T08:42:35;28.04;30.09
43772;HTU21D;59066;54.782;32.024;2023-06-22T08:45:03;27.94;29.96
43772;HTU21D;59066;54.782;32.024;2023-06-22T08:47:31;27.91;29.62
43772;HTU21D;59066;54.782;32.024;2023-06-22T08:49:59;27.90;29.57
43772;HTU21D;59066;54.782;32.024;2023-06-22T08:52:26;28.00;29.32
43772;HTU21D;59066;54.782;32.024;2023-06-22T08:54:54;28.00;29.44
43772;HTU21D;59066;54.782;32.024;2023-06-22T08:57:22;28.00;29.56
43772;HTU21D;59066;54.782;32.024;2023-06-22T08:59:49;28.08;29.59
43772;HTU21D;59066;54.782;32.024;2023-06-22T09:02:19;28.18;29.52
43772;HTU21D;59066;54.782;32.024;2023-06-22T09:04:47;28.28;29.44
43772;HTU21D;59066;54.782;32.024;2023-06-22T09:07:16;28.17;29.22
43772;HTU21D;59066;54.782;32.024;2023-06-22T09:09:50;28.13;29.52
43772;HTU21D;59066;54.782;32.024;2023-06-22T09:12:19;28.23;29.56
43772;HTU21D;59066;54.782;32.024;2023-06-22T09:14:47;28.38;29.61
43772;HTU21D;59066;54.782;32.024;2023-06-22T09:17:14;28.40;29.22
43772;HTU21D;59066;54.782;32.024;2023-06-22T09:19:42;28.41;28.68
43772;HTU21D;59066;54.782;32.024;2023-06-22T09:22:09;28.40;28.15
43772;HTU21D;59066;54.782;32.024;2023-06-22T09:24:36;28.43;28.13
43772;HTU21D;59066;54.782;32.024;2023-06-22T09:27:04;28.52;28.20
43772;HTU21D;59066;54.782;32.024;2023-06-22T09:29:31;28.69;28.23
43772;HTU21D;59066;54.782;32.024;2023-06-22T09:32:00;28.82;28.13
43772;HTU21D;59066;54.782;32.024;2023-06-22T09:34:29;28.98;27.62
43772;HTU21D;59066;54.782;32.024;2023-06-22T09:36:58;28.91;27.39
43772;HTU21D;59066;54.782;32.024;2023-06-22T09:39:27;28.85;27.74
43772;HTU21D;59066;54.782;32.024;2023-06-22T09:41:58;29.04;27.53
43772;HTU21D;59066;54.782;32.024;2023-06-22T09:44:27;29.16;27.65
43772;HTU21D;59066;54.782;32.024;2023-06-22T09:46:54;29.37;27.93
43772;HTU21D;59066;54.782;32.024;2023-06-22T09:49:22;29.53;27.85
43772;HTU21D;59066;54.782;32.024;2023-06-22T09:52:07;29.60;27.97
43772;HTU21D;59066;54.782;32.024;2023-06-22T09:54:35;29.73;27.78
43772;HTU21D;59066;54.782;32.024;2023-06-22T09:57:02;29.63;27.33
43772;HTU21D;59066;54.782;32.024;2023-06-22T09:59:30;29.49;27.32
43772;HTU21D;59066;54.782;32.024;2023-06-22T10:01:57;29.54;27.47
43772;HTU21D;59066;54.782;32.024;2023-06-22T10:04:25;29.66;27.53
43772;HTU21D;59066;54.782;32.024;2023-06-22T10:06:53;30.01;27.51
43772;HTU21D;59066;54.782;32.024;2023-06-22T10:09:20;30.30;27.41
43772;HTU21D;59066;54.782;32.024;2023-06-22T10:11:48;30.82;27.51
43772;HTU21D;59066;54.782;32.024;2023-06-22T10:14:16;31.48;26.70
43772;HTU21D;59066;54.782;32.024;2023-06-22T10:16:44;31.48;24.93
43772;HTU21D;59066;54.782;32.024;2023-06-22T10:19:11;31.43;24.65
43772;HTU21D;59066;54.782;32.024;2023-06-22T10:21:39;31.82;24.59
43772;HTU21D;59066;54.782;32.024;2023-06-22T10:24:06;32.26;24.33
43772;HTU21D;59066;54.782;32.024;2023-06-22T10:26:35;32.50;24.11
43772;HTU21D;59066;54.782;32.024;2023-06-22T10:29:03;32.54;23.69
43772;HTU21D;59066;54.782;32.024;2023-06-22T10:31:42;32.47;23.85
43772;HTU21D;59066;54.782;32.024;2023-06-22T10:34:09;32.40;23.67
43772;HTU21D;59066;54.782;32.024;2023-06-22T10:36:36;32.70;23.08
43772;HTU21D;59066;54.782;32.024;2023-06-22T10:39:04;32.91;23.01
43772;HTU21D;59066;54.782;32.024;2023-06-22T10:41:31;33.55;22.65
43772;HTU21D;59066;54.782;32.024;2023-06-22T10:43:59;33.85;21.85
43772;HTU21D;59066;54.782;32.024;2023-06-22T10:46:26;33.47;21.71
43772;HTU21D;59066;54.782;32.024;2023-06-22T10:48:54;33.51;22.04
43772;HTU21D;59066;54.782;32.024;2023-06-22T10:51:24;33.79;21.72
43772;HTU21D;59066;54.782;32.024;2023-06-22T10:53:52;33.26;21.69
43772;HTU21D;59066;54.782;32.024;2023-06-22T10:56:20;33.22;21.80
43772;HTU21D;59066;54.782;32.024;2023-06-22T10:58:47;34.05;21.60
43772;HTU21D;59066;54.782;32.024;2023-06-22T11:01:15;34.62;21.34
43772;HTU21D;59066;54.782;32.024;2023-06-22T11:03:59;34.59;21.47
43772;HTU21D;59066;54.782;32.024;2023-06-22T11:06:27;34.21;21.44
43772;HTU21D;59066;54.782;32.024;2023-06-22T11:08:54;33.86;21.92
43772;HTU21D;59066;54.782;32.024;2023-06-22T11:11:29;34.03;22.08
43772;HTU21D;59066;54.782;32.024;2023-06-22T11:13:57;33.91;22.48
43772;HTU21D;59066;54.782;32.024;2023-06-22T11:16:24;33.96;22.73
43772;HTU21D;59066;54.782;32.024;2023-06-22T11:18:52;33.74;22.99
43772;HTU21D;59066;54.782;32.024;2023-06-22T11:21:19;33.18;23.50
43772;HTU21D;59066;54.782;32.024;2023-06-22T11:23:46;32.47;24.35
43772;HTU21D;59066;54.782;32.024;2023-06-22T11:26:14;31.72;24.72
43772;HTU21D;59066;54.782;32.024;2023-06-22T11:28:41;31.29;25.07
43772;HTU21D;59066;54.782;32.024;2023-06-22T11:31:09;31.00;25.01
43772;HTU21D;59066;54.782;32.024;2023-06-22T11:33:51;30.77;25.10
43772;HTU21D;59066;54.782;32.024;2023-06-22T11:36:19;30.66;25.14
43772;HTU21D;59066;54.782;32.024;2023-06-22T11:38:47;30.45;25.65
43772;HTU21D;59066;54.782;32.024;2023-06-22T11:41:14;30.06;27.05
43772;HTU21D;59066;54.782;32.024;2023-06-22T11:43:41;29.37;29.26
43772;HTU21D;59066;54.782;32.024;2023-06-22T11:46:09;28.69;31.75
43772;HTU21D;59066;54.782;32.024;2023-06-22T11:48:37;27.86;40.29
43772;HTU21D;59066;54.782;32.024;2023-06-22T11:51:05;25.48;47.68
43772;HTU21D;59066;54.782;32.024;2023-06-22T11:53:34;24.47;50.60
43772;HTU21D;59066;54.782;32.024;2023-06-22T11:56:04;23.95;53.15
43772;HTU21D;59066;54.782;32.024;2023-06-22T11:58:32;23.60;56.05
43772;HTU21D;59066;54.782;32.024;2023-06-22T12:00:59;23.38;59.05
43772;HTU21D;59066;54.782;32.024;2023-06-22T12:03:26;23.10;62.75
43772;HTU21D;59066;54.782;32.024;2023-06-22T12:05:54;22.91;66.71
43772;HTU21D;59066;54.782;32.024;2023-06-22T12:08:22;22.77;69.14
43772;HTU21D;59066;54.782;32.024;2023-06-22T12:10:49;22.86;70.96
43772;HTU21D;59066;54.782;32.024;2023-06-22T12:13:17;22.92;71.62
43772;HTU21D;59066;54.782;32.024;2023-06-22T12:15:45;22.95;71.95
43772;HTU21D;59066;54.782;32.024;2023-06-22T12:18:12;22.86;72.30
43772;HTU21D;59066;54.782;32.024;2023-06-22T12:20:42;22.76;74.34
43772;HTU21D;59066;54.782;32.024;2023-06-22T12:23:09;22.78;75.80
43772;HTU21D;59066;54.782;32.024;2023-06-22T12:25:36;22.85;76.33
43772;HTU21D;59066;54.782;32.024;2023-06-22T12:28:04;22.92;77.17
43772;HTU21D;59066;54.782;32.024;2023-06-22T12:30:35;23.00;77.61
43772;HTU21D;59066;54.782;32.024;2023-06-22T12:33:02;23.07;76.44
43772;HTU21D;59066;54.782;32.024;2023-06-22T12:35:30;23.12;76.64
43772;HTU21D;59066;54.782;32.024;2023-06-22T12:37:57;23.15;75.73
43772;HTU21D;59066;54.782;32.024;2023-06-22T12:40:25;23.23;74.29
43772;HTU21D;59066;54.782;32.024;2023-06-22T12:42:53;23.32;75.05
43772;HTU21D;59066;54.782;32.024;2023-06-22T12:45:20;23.51;74.90
43772;HTU21D;59066;54.782;32.024;2023-06-22T12:47:48;23.69;74.95
43772;HTU21D;59066;54.782;32.024;2023-06-22T12:50:17;23.89;74.70
43772;HTU21D;59066;54.782;32.024;2023-06-22T12:52:44;24.01;73.96
43772;HTU21D;59066;54.782;32.024;2023-06-22T12:55:12;24.11;73.67
43772;HTU21D;59066;54.782;32.024;2023-06-22T12:57:40;24.23;73.03
43772;HTU21D;59066;54.782;32.024;2023-06-22T13:00:07;24.25;71.07
43772;HTU21D;59066;54.782;32.024;2023-06-22T13:02:37;23.92;69.79
43772;HTU21D;59066;54.782;32.024;2023-06-22T13:05:05;23.51;68.61
43772;HTU21D;59066;54.782;32.024;2023-06-22T13:07:32;23.40;68.52
43772;HTU21D;59066;54.782;32.024;2023-06-22T13:10:00;23.38;70.07
43772;HTU21D;59066;54.782;32.024;2023-06-22T13:12:28;23.45;70.86
43772;HTU21D;59066;54.782;32.024;2023-06-22T13:14:56;23.72;71.00
43772;HTU21D;59066;54.782;32.024;2023-06-22T13:17:23;24.02;70.74
43772;HTU21D;59066;54.782;32.024;2023-06-22T13:19:50;24.26;70.08
43772;HTU21D;59066;54.782;32.024;2023-06-22T13:22:33;24.54;68.80
43772;HTU21D;59066;54.782;32.024;2023-06-22T13:25:07;25.09;68.90
43772;HTU21D;59066;54.782;32.024;2023-06-22T13:27:40;25.34;68.09
43772;HTU21D;59066;54.782;32.024;2023-06-22T13:30:09;25.48;67.62
43772;HTU21D;59066;54.782;32.024;2023-06-22T13:32:39;25.67;66.25
43772;HTU21D;59066;54.782;32.024;2023-06-22T13:35:10;26.30;64.56
43772;HTU21D;59066;54.782;32.024;2023-06-22T13:37:37;26.97;61.04
43772;HTU21D;59066;54.782;32.024;2023-06-22T13:40:06;27.82;59.29
43772;HTU21D;59066;54.782;32.024;2023-06-22T13:42:34;28.95;58.53
43772;HTU21D;59066;54.782;32.024;2023-06-22T13:45:02;29.89;57.26
43772;HTU21D;59066;54.782;32.024;2023-06-22T13:47:30;30.60;55.13
43772;HTU21D;59066;54.782;32.024;2023-06-22T13:49:58;30.85;53.17
43772;HTU21D;59066;54.782;32.024;2023-06-22T13:52:26;31.02;51.55
43772;HTU21D;59066;54.782;32.024;2023-06-22T13:54:53;31.69;49.79
43772;HTU21D;59066;54.782;32.024;2023-06-22T13:57:20;32.34;47.79
43772;HTU21D;59066;54.782;32.024;2023-06-22T13:59:48;32.96;45.99
43772;HTU21D;59066;54.782;32.024;2023-06-22T14:02:15;32.83;44.95
43772;HTU21D;59066;54.782;32.024;2023-06-22T14:04:43;32.26;44.34
43772;HTU21D;59066;54.782;32.024;2023-06-22T14:07:10;31.78;43.95
43772;HTU21D;59066;54.782;32.024;2023-06-22T14:09:40;31.76;43.55
43772;HTU21D;59066;54.782;32.024;2023-06-22T14:12:08;32.46;42.72
43772;HTU21D;59066;54.782;32.024;2023-06-22T14:14:35;33.20;41.49
43772;HTU21D;59066;54.782;32.024;2023-06-22T14:17:03;33.78;40.17
43772;HTU21D;59066;54.782;32.024;2023-06-22T14:19:31;33.91;39.30
43772;HTU21D;59066;54.782;32.024;2023-06-22T14:21:59;33.40;37.90
43772;HTU21D;59066;54.782;32.024;2023-06-22T14:24:26;33.07;37.51
43772;HTU21D;59066;54.782;32.024;2023-06-22T14:26:55;32.44;38.46
43772;HTU21D;59066;54.782;32.024;2023-06-22T14:29:23;31.74;38.92
43772;HTU21D;59066;54.782;32.024;2023-06-22T14:31:50;31.04;37.96
43772;HTU21D;59066;54.782;32.024;2023-06-22T14:34:18;30.47;38.01
43772;HTU21D;59066;54.782;32.024;2023-06-22T14:36:45;30.04;37.77
43772;HTU21D;59066;54.782;32.024;2023-06-22T14:39:13;29.73;37.85
43772;HTU21D;59066;54.782;32.024;2023-06-22T14:41:40;29.36;37.93
43772;HTU21D;59066;54.782;32.024;2023-06-22T14:44:08;29.20;38.82
43772;HTU21D;59066;54.782;32.024;2023-06-22T14:46:35;28.74;40.23
43772;HTU21D;59066;54.782;32.024;2023-06-22T14:49:02;28.37;41.57
43772;HTU21D;59066;54.782;32.024;2023-06-22T14:51:30;27.30;48.80
43772;HTU21D;59066;54.782;32.024;2023-06-22T14:53:57;26.20;55.15
43772;HTU21D;59066;54.782;32.024;2023-06-22T14:56:25;25.09;60.49
43772;HTU21D;59066;54.782;32.024;2023-06-22T14:58:52;24.24;63.01
43772;HTU21D;59066;54.782;32.024;2023-06-22T15:01:19;23.47;64.23
43772;HTU21D;59066;54.782;32.024;2023-06-22T15:03:47;23.09;65.73
43772;HTU21D;59066;54.782;32.024;2023-06-22T15:06:15;22.85;66.24
43772;HTU21D;59066;54.782;32.024;2023-06-22T15:08:43;22.75;67.09
43772;HTU21D;59066;54.782;32.024;2023-06-22T15:11:10;22.65;68.38
43772;HTU21D;59066;54.782;32.024;2023-06-22T15:13:41;22.51;68.34
43772;HTU21D;59066;54.782;32.024;2023-06-22T15:16:09;22.32;67.77
43772;HTU21D;59066;54.782;32.024;2023-06-22T15:18:36;22.23;66.57
43772;HTU21D;59066;54.782;32.024;2023-06-22T15:21:04;22.16;67.60
43772;HTU21D;59066;54.782;32.024;2023-06-22T15:23:32;22.13;68.41
43772;HTU21D;59066;54.782;32.024;2023-06-22T15:26:03;21.52;70.52